createdAt,value
2018-07-22T00:00:47.337Z,0.00
2018-07-22T00:01:47.336Z,0.00
2018-07-22T00:02:47.331Z,0.00
2018-07-22T00:03:47.331Z,0.00
2018-07-22T00:04:47.335Z,0.00
2018-07-22T00:05:47.335Z,0.00
2018-07-22T00:06:47.329Z,0.00
2018-07-22T00:07:47.329Z,0.00
2018-07-22T00:08:47.329Z,0.00
2018-07-22T00:09:47.329Z,0.00
2018-07-22T00:10:47.334Z,0.00
2018-07-22T00:11:47.333Z,0.00
2018-07-22T00:12:47.335Z,0.00
2018-07-22T00:13:47.332Z,0.00
2018-07-22T00:14:47.326Z,0.00
2018-07-22T00:15:47.327Z,0.00
2018-07-22T00:16:47.330Z,0.00
2018-07-22T00:17:47.324Z,0.00
2018-07-22T00:18:47.328Z,0.00
2018-07-22T00:19:47.328Z,0.00
2018-07-22T00:20:47.326Z,0.00
2018-07-22T00:21:47.322Z,0.00
2018-07-22T00:22:47.327Z,0.00
2018-07-22T00:23:47.326Z,0.00
2018-07-22T00:24:47.327Z,0.00
2018-07-22T00:25:47.326Z,0.00
2018-07-22T00:26:47.321Z,0.00
2018-07-22T00:27:47.321Z,0.00
2018-07-22T00:28:47.319Z,0.00
2018-07-22T00:29:47.318Z,0.00
2018-07-22T00:30:47.322Z,0.00
2018-07-22T00:31:47.323Z,0.00
2018-07-22T00:32:47.322Z,0.00
2018-07-22T00:33:47.320Z,0.00
2018-07-22T00:34:47.315Z,0.00
2018-07-22T00:35:47.318Z,0.00
2018-07-22T00:36:47.318Z,0.00
2018-07-22T00:37:47.318Z,0.00
2018-07-22T00:38:47.314Z,0.00
2018-07-22T00:39:47.314Z,0.00
2018-07-22T00:40:47.312Z,0.00
2018-07-22T00:41:47.310Z,0.00
2018-07-22T00:42:47.316Z,0.00
2018-07-22T00:43:47.315Z,0.00
2018-07-22T00:44:47.314Z,0.00
2018-07-22T00:45:47.314Z,0.00
2018-07-22T00:46:47.307Z,0.00
2018-07-22T00:47:47.306Z,0.00
2018-07-22T00:48:47.307Z,0.00
2018-07-22T00:49:47.305Z,0.00
2018-07-22T00:50:47.310Z,0.00
2018-07-22T00:51:47.308Z,0.00
2018-07-22T00:52:47.303Z,0.00
2018-07-22T00:53:47.303Z,0.00
2018-07-22T00:54:47.307Z,0.00
2018-07-22T00:55:47.307Z,0.00
2018-07-22T00:56:47.307Z,0.00
2018-07-22T00:57:47.305Z,0.00
2018-07-22T00:58:47.299Z,0.00
2018-07-22T00:59:47.308Z,0.00
2018-07-22T01:00:47.298Z,0.00
2018-07-22T01:01:47.296Z,0.00
2018-07-22T01:02:47.301Z,0.00
2018-07-22T01:03:47.300Z,0.00
2018-07-22T01:04:47.300Z,0.00
2018-07-22T01:05:47.299Z,0.00
2018-07-22T01:06:47.293Z,0.00
2018-07-22T01:07:47.293Z,0.00
2018-07-22T01:08:47.298Z,0.00
2018-07-22T01:09:47.297Z,0.00
2018-07-22T01:10:47.294Z,0.00
2018-07-22T01:11:47.290Z,0.00
2018-07-22T01:12:47.289Z,0.00
2018-07-22T01:13:47.287Z,0.00
2018-07-22T01:14:47.291Z,0.00
2018-07-22T01:15:47.292Z,0.00
2018-07-22T01:16:47.293Z,0.00
2018-07-22T01:17:47.288Z,0.00
2018-07-22T01:18:47.283Z,0.00
2018-07-22T01:19:47.283Z,0.00
2018-07-22T01:20:47.282Z,0.00
2018-07-22T01:21:47.282Z,0.00
2018-07-22T01:22:47.286Z,0.00
2018-07-22T01:23:47.289Z,0.00
2018-07-22T01:24:47.279Z,0.00
2018-07-22T01:25:47.281Z,0.00
2018-07-22T01:26:47.283Z,0.00
2018-07-22T01:27:47.282Z,0.00
2018-07-22T01:28:47.280Z,0.00
2018-07-22T01:29:47.279Z,0.00
2018-07-22T01:30:47.273Z,0.00
2018-07-22T01:31:47.272Z,0.00
2018-07-22T01:32:47.272Z,0.00
2018-07-22T01:33:47.271Z,0.00
2018-07-22T01:34:47.274Z,0.00
2018-07-22T01:35:47.273Z,0.00
2018-07-22T01:36:47.274Z,0.00
2018-07-22T01:37:47.271Z,0.00
2018-07-22T01:38:47.267Z,0.00
2018-07-22T01:39:47.266Z,0.00
2018-07-22T01:40:47.271Z,0.00
2018-07-22T01:41:47.269Z,0.00
2018-07-22T01:42:47.263Z,0.00
2018-07-22T01:43:47.262Z,0.00
2018-07-22T01:44:47.261Z,0.00
2018-07-22T01:45:47.260Z,0.00
2018-07-22T01:46:47.264Z,0.00
2018-07-22T01:47:47.263Z,0.00
2018-07-22T01:48:47.261Z,0.00
2018-07-22T01:49:47.260Z,0.00
2018-07-22T01:50:47.255Z,0.00
2018-07-22T01:51:47.256Z,0.00
2018-07-22T01:52:47.254Z,0.00
2018-07-22T01:53:47.252Z,0.00
2018-07-22T01:54:47.257Z,0.00
2018-07-22T01:55:47.256Z,0.00
2018-07-22T01:56:47.250Z,0.00
2018-07-22T01:57:47.255Z,0.00
2018-07-22T01:58:47.252Z,0.00
2018-07-22T01:59:47.253Z,0.00
2018-07-22T02:00:47.251Z,0.00
2018-07-22T02:01:47.249Z,0.00
2018-07-22T02:02:47.243Z,0.00
2018-07-22T02:03:47.241Z,0.00
2018-07-22T02:04:47.241Z,0.00
2018-07-22T02:05:47.239Z,0.00
2018-07-22T02:06:47.243Z,0.00
2018-07-22T02:07:47.245Z,0.00
2018-07-22T02:08:47.242Z,0.00
2018-07-22T02:09:47.240Z,0.00
2018-07-22T02:10:47.235Z,0.00
2018-07-22T02:11:47.234Z,0.00
2018-07-22T02:12:47.238Z,0.00
2018-07-22T02:13:47.238Z,0.00
2018-07-22T02:14:47.230Z,0.00
2018-07-22T02:15:47.230Z,0.00
2018-07-22T02:16:47.228Z,0.00
2018-07-22T02:17:47.226Z,0.00
2018-07-22T02:18:47.229Z,0.00
2018-07-22T02:19:47.229Z,0.00
2018-07-22T02:20:47.277Z,0.00
2018-07-22T02:21:47.228Z,0.00
2018-07-22T02:22:47.220Z,0.00
2018-07-22T02:23:47.219Z,0.00
2018-07-22T02:24:47.221Z,0.00
2018-07-22T02:25:47.217Z,0.00
2018-07-22T02:26:47.220Z,0.00
2018-07-22T02:27:47.220Z,0.00
2018-07-22T02:28:47.214Z,0.00
2018-07-22T02:29:47.211Z,0.00
2018-07-22T02:30:47.218Z,0.00
2018-07-22T02:31:47.217Z,0.00
2018-07-22T02:32:47.214Z,0.00
2018-07-22T02:33:47.212Z,0.00
2018-07-22T02:34:47.206Z,0.00
2018-07-22T02:35:47.204Z,0.00
2018-07-22T02:36:47.203Z,0.00
2018-07-22T02:37:47.202Z,0.00
2018-07-22T02:38:47.206Z,0.00
2018-07-22T02:39:47.208Z,0.00
2018-07-22T02:40:47.204Z,0.00
2018-07-22T02:41:47.201Z,0.00
2018-07-22T02:42:47.195Z,0.00
2018-07-22T02:43:47.196Z,0.00
2018-07-22T02:44:47.198Z,0.00
2018-07-22T02:45:47.196Z,0.00
2018-07-22T02:46:47.191Z,0.00
2018-07-22T02:47:47.188Z,0.00
2018-07-22T02:48:47.188Z,0.00
2018-07-22T02:49:47.192Z,0.00
2018-07-22T02:50:47.190Z,0.00
2018-07-22T02:51:47.188Z,0.00
2018-07-22T02:52:47.187Z,0.00
2018-07-22T02:53:47.185Z,0.00
2018-07-22T02:54:47.180Z,0.00
2018-07-22T02:55:47.180Z,0.00
2018-07-22T02:56:47.177Z,0.00
2018-07-22T02:57:47.177Z,0.00
2018-07-22T02:58:47.179Z,0.00
2018-07-22T02:59:47.178Z,0.00
2018-07-22T03:00:47.171Z,0.00
2018-07-22T03:01:47.171Z,0.00
2018-07-22T03:02:47.174Z,0.00
2018-07-22T03:03:47.172Z,0.00
2018-07-22T03:04:47.171Z,0.00
2018-07-22T03:05:47.169Z,0.00
2018-07-22T03:06:47.162Z,0.00
2018-07-22T03:07:47.162Z,0.00
2018-07-22T03:08:47.160Z,0.00
2018-07-22T03:09:47.158Z,0.00
2018-07-22T03:10:47.161Z,0.00
2018-07-22T03:11:47.160Z,0.00
2018-07-22T03:12:47.161Z,0.00
2018-07-22T03:13:47.155Z,0.00
2018-07-22T03:14:47.151Z,0.00
2018-07-22T03:15:47.149Z,0.00
2018-07-22T03:16:47.152Z,0.00
2018-07-22T03:17:47.150Z,0.00
2018-07-22T03:18:47.144Z,0.00
2018-07-22T03:19:47.143Z,0.00
2018-07-22T03:20:47.141Z,0.00
2018-07-22T03:21:47.144Z,0.00
2018-07-22T03:22:47.143Z,0.00
2018-07-22T03:23:47.141Z,0.00
2018-07-22T03:24:47.155Z,0.00
2018-07-22T03:25:47.137Z,0.00
2018-07-22T03:26:47.131Z,0.00
2018-07-22T03:27:47.129Z,0.00
2018-07-22T03:28:47.127Z,0.00
2018-07-22T03:29:47.125Z,0.00
2018-07-22T03:30:47.128Z,0.00
2018-07-22T03:31:47.127Z,0.00
2018-07-22T03:32:47.123Z,0.00
2018-07-22T03:33:47.121Z,5.63
2018-07-22T03:34:47.121Z,5.63
2018-07-22T03:35:47.120Z,5.63
2018-07-22T03:36:47.119Z,5.63
2018-07-22T03:37:47.116Z,5.63
2018-07-22T03:38:47.110Z,5.63
2018-07-22T03:39:47.109Z,5.63
2018-07-22T03:40:47.109Z,5.63
2018-07-22T03:41:47.110Z,5.63
2018-07-22T03:42:47.109Z,11.25
2018-07-22T03:43:47.106Z,11.25
2018-07-22T03:44:47.104Z,11.25
2018-07-22T03:45:47.103Z,11.25
2018-07-22T03:46:47.097Z,11.25
2018-07-22T03:47:47.095Z,11.25
2018-07-22T03:48:47.098Z,16.88
2018-07-22T03:49:47.094Z,16.88
2018-07-22T03:50:47.089Z,16.88
2018-07-22T03:51:47.087Z,16.88
2018-07-22T03:52:47.085Z,22.50
2018-07-22T03:53:47.083Z,22.50
2018-07-22T03:54:47.087Z,22.50
2018-07-22T03:55:47.084Z,22.50
2018-07-22T03:56:47.084Z,28.13
2018-07-22T03:57:47.081Z,28.13
2018-07-22T03:58:47.074Z,28.13
2018-07-22T03:59:47.071Z,33.75
2018-07-22T04:00:47.070Z,33.75
2018-07-22T04:01:47.068Z,33.75
2018-07-22T04:02:47.070Z,39.38
2018-07-22T04:03:47.069Z,39.38
2018-07-22T04:04:47.062Z,39.38
2018-07-22T04:05:47.060Z,45.00
2018-07-22T04:06:47.063Z,45.00
2018-07-22T04:07:47.062Z,50.63
2018-07-22T04:08:47.060Z,50.63
2018-07-22T04:09:47.058Z,56.25
2018-07-22T04:10:47.051Z,56.25
2018-07-22T04:11:47.049Z,56.25
2018-07-22T04:12:47.047Z,61.88
2018-07-22T04:13:47.046Z,61.88
2018-07-22T04:14:47.050Z,67.50
2018-07-22T04:15:47.045Z,67.50
2018-07-22T04:16:47.044Z,73.13
2018-07-22T04:17:47.042Z,73.13
2018-07-22T04:18:47.037Z,78.75
2018-07-22T04:19:47.034Z,78.75
2018-07-22T04:20:47.037Z,84.38
2018-07-22T04:21:47.035Z,84.38
2018-07-22T04:22:47.033Z,90.00
2018-07-22T04:23:47.029Z,90.00
2018-07-22T04:24:47.040Z,95.63
2018-07-22T04:25:47.023Z,101.25
2018-07-22T04:26:47.025Z,101.25
2018-07-22T04:27:47.026Z,106.88
2018-07-22T04:28:47.024Z,106.88
2018-07-22T04:29:47.025Z,106.88
2018-07-22T04:30:47.015Z,112.50
2018-07-22T04:31:47.012Z,112.50
2018-07-22T04:32:47.012Z,118.13
2018-07-22T04:33:47.009Z,118.13
2018-07-22T04:34:47.015Z,123.75
2018-07-22T04:35:47.011Z,129.38
2018-07-22T04:36:47.005Z,129.38
2018-07-22T04:37:47.001Z,135.00
2018-07-22T04:38:47.006Z,135.00
2018-07-22T04:39:47.007Z,140.63
2018-07-22T04:40:47.033Z,146.25
2018-07-22T04:41:47.001Z,146.25
2018-07-22T04:42:46.993Z,151.88
2018-07-22T04:43:46.993Z,157.50
2018-07-22T04:44:46.991Z,163.13
2018-07-22T04:45:46.990Z,163.13
2018-07-22T04:46:46.991Z,168.75
2018-07-22T04:47:46.991Z,174.38
2018-07-22T04:48:46.990Z,180.00
2018-07-22T04:49:46.988Z,185.63
2018-07-22T04:50:46.982Z,191.25
2018-07-22T04:51:46.981Z,191.25
2018-07-22T04:52:46.984Z,208.13
2018-07-22T04:53:46.982Z,225.00
2018-07-22T04:54:46.979Z,236.25
2018-07-22T04:55:46.979Z,253.13
2018-07-22T04:56:46.974Z,253.13
2018-07-22T04:57:46.971Z,270.00
2018-07-22T04:58:46.975Z,281.25
2018-07-22T04:59:46.974Z,292.50
2018-07-22T05:00:46.975Z,303.75
2018-07-22T05:01:46.973Z,315.00
2018-07-22T05:02:46.967Z,326.25
2018-07-22T05:03:46.968Z,337.50
2018-07-22T05:04:46.972Z,354.38
2018-07-22T05:05:46.966Z,365.63
2018-07-22T05:06:46.971Z,382.50
2018-07-22T05:07:46.972Z,393.75
2018-07-22T05:08:46.965Z,410.63
2018-07-22T05:09:46.964Z,421.88
2018-07-22T05:10:46.971Z,433.13
2018-07-22T05:11:46.970Z,444.38
2018-07-22T05:12:46.970Z,455.63
2018-07-22T05:13:46.970Z,472.50
2018-07-22T05:14:46.967Z,483.75
2018-07-22T05:15:46.968Z,500.63
2018-07-22T05:16:46.969Z,511.88
2018-07-22T05:17:46.969Z,523.13
2018-07-22T05:18:46.976Z,534.38
2018-07-22T05:19:46.977Z,545.63
2018-07-22T05:20:46.977Z,556.88
2018-07-22T05:21:46.978Z,568.13
2018-07-22T05:22:46.975Z,579.38
2018-07-22T05:23:46.977Z,601.88
2018-07-22T05:24:46.983Z,607.50
2018-07-22T05:25:46.985Z,624.38
2018-07-22T05:26:46.983Z,641.25
2018-07-22T05:27:46.985Z,658.13
2018-07-22T05:28:46.987Z,675.00
2018-07-22T05:29:46.991Z,691.88
2018-07-22T05:30:46.997Z,697.50
2018-07-22T05:31:47.002Z,703.13
2018-07-22T05:32:47.003Z,708.75
2018-07-22T05:33:47.005Z,714.38
2018-07-22T05:34:47.003Z,731.25
2018-07-22T05:35:47.016Z,742.50
2018-07-22T05:36:47.010Z,748.13
2018-07-22T05:37:47.013Z,759.38
2018-07-22T05:38:47.020Z,759.38
2018-07-22T05:39:47.024Z,770.63
2018-07-22T05:40:47.024Z,787.50
2018-07-22T05:41:47.027Z,804.38
2018-07-22T05:42:47.037Z,821.25
2018-07-22T05:43:47.040Z,832.50
2018-07-22T05:44:47.044Z,838.13
2018-07-22T05:45:47.049Z,849.38
2018-07-22T05:46:47.047Z,860.63
2018-07-22T05:47:47.053Z,860.63
2018-07-22T05:48:47.057Z,877.50
2018-07-22T05:49:47.060Z,900.00
2018-07-22T05:50:47.071Z,916.88
2018-07-22T05:51:47.077Z,939.38
2018-07-22T05:52:47.079Z,950.63
2018-07-22T05:53:47.083Z,961.88
2018-07-22T05:54:47.085Z,967.50
2018-07-22T05:55:47.089Z,973.13
2018-07-22T05:56:47.099Z,1001.25
2018-07-22T05:57:47.103Z,1023.75
2018-07-22T05:58:47.111Z,1040.63
2018-07-22T05:59:47.110Z,1063.13
2018-07-22T06:00:47.117Z,1057.50
2018-07-22T06:01:47.124Z,1080.00
2018-07-22T06:02:47.133Z,1091.25
2018-07-22T06:03:47.139Z,1108.13
2018-07-22T06:04:47.144Z,1119.38
2018-07-22T06:05:47.152Z,1125.00
2018-07-22T06:06:47.153Z,1136.25
2018-07-22T06:07:47.161Z,1153.13
2018-07-22T06:08:47.164Z,1164.38
2018-07-22T06:09:47.169Z,1181.25
2018-07-22T06:10:47.181Z,1215.00
2018-07-22T06:11:47.246Z,1220.63
2018-07-22T06:12:47.191Z,1231.88
2018-07-22T06:13:47.195Z,1254.38
2018-07-22T06:14:47.207Z,1260.00
2018-07-22T06:15:47.214Z,1282.50
2018-07-22T06:16:47.294Z,1282.50
2018-07-22T06:17:47.229Z,1293.75
2018-07-22T06:18:47.236Z,1305.00
2018-07-22T06:19:47.239Z,1321.88
2018-07-22T06:20:47.246Z,1338.75
2018-07-22T06:21:47.253Z,1338.75
2018-07-22T06:22:47.266Z,1366.88
2018-07-22T06:23:47.273Z,1378.13
2018-07-22T06:24:47.282Z,1400.63
2018-07-22T06:25:47.290Z,1406.25
2018-07-22T06:26:47.293Z,1423.13
2018-07-22T06:27:47.304Z,1445.63
2018-07-22T06:28:47.318Z,1434.38
2018-07-22T06:29:47.323Z,1462.50
2018-07-22T06:30:47.326Z,1445.63
2018-07-22T06:31:47.336Z,1451.25
2018-07-22T06:32:47.346Z,1473.75
2018-07-22T06:33:47.353Z,1473.75
2018-07-22T06:34:47.367Z,1479.38
2018-07-22T06:35:47.375Z,1490.63
2018-07-22T06:36:47.384Z,1496.25
2018-07-22T06:37:47.393Z,1535.63
2018-07-22T06:38:47.398Z,1569.38
2018-07-22T06:39:47.408Z,1580.63
2018-07-22T06:40:47.419Z,1580.63
2018-07-22T06:41:47.427Z,1580.63
2018-07-22T06:42:47.443Z,1591.88
2018-07-22T06:43:47.452Z,1608.75
2018-07-22T06:44:47.458Z,1608.75
2018-07-22T06:45:47.467Z,1636.88
2018-07-22T06:46:47.485Z,1631.25
2018-07-22T06:47:47.493Z,1608.75
2018-07-22T06:48:47.503Z,1625.63
2018-07-22T06:49:47.513Z,1665.00
2018-07-22T06:50:47.518Z,1676.25
2018-07-22T06:51:47.528Z,1676.25
2018-07-22T06:52:47.539Z,1698.75
2018-07-22T06:53:47.550Z,1698.75
2018-07-22T06:54:47.564Z,1710.00
2018-07-22T06:55:47.575Z,1693.13
2018-07-22T06:56:47.588Z,1732.50
2018-07-22T06:57:47.601Z,1743.75
2018-07-22T06:58:47.605Z,1726.88
2018-07-22T06:59:47.614Z,1755.00
2018-07-22T07:00:47.636Z,1715.63
2018-07-22T07:01:47.640Z,1738.13
2018-07-22T07:02:47.647Z,1788.75
2018-07-22T07:03:47.658Z,1811.25
2018-07-22T07:04:47.669Z,1794.38
2018-07-22T07:05:47.684Z,1794.38
2018-07-22T07:06:47.696Z,1833.75
2018-07-22T07:07:47.710Z,1856.25
2018-07-22T07:08:47.721Z,1873.13
2018-07-22T07:09:47.730Z,1884.38
2018-07-22T07:10:47.739Z,1884.38
2018-07-22T07:11:47.750Z,1912.50
2018-07-22T07:12:47.763Z,1906.88
2018-07-22T07:13:47.774Z,1918.13
2018-07-22T07:14:47.791Z,1963.13
2018-07-22T07:15:47.806Z,1974.38
2018-07-22T07:16:47.810Z,1963.13
2018-07-22T07:17:47.824Z,1951.88
2018-07-22T07:18:47.841Z,1935.00
2018-07-22T07:19:47.854Z,1946.25
2018-07-22T07:20:47.886Z,1935.00
2018-07-22T07:21:47.879Z,1940.63
2018-07-22T07:22:47.886Z,1935.00
2018-07-22T07:23:47.900Z,1980.00
2018-07-22T07:24:47.913Z,2008.13
2018-07-22T07:25:47.926Z,2025.00
2018-07-22T07:26:48.025Z,2053.13
2018-07-22T07:27:47.958Z,2081.25
2018-07-22T07:28:47.971Z,2075.63
2018-07-22T07:29:47.984Z,2109.38
2018-07-22T07:30:47.994Z,2109.38
2018-07-22T07:31:48.008Z,2120.63
2018-07-22T07:32:48.026Z,2131.88
2018-07-22T07:33:48.041Z,2165.63
2018-07-22T07:34:48.048Z,2176.88
2018-07-22T07:35:48.063Z,2283.75
2018-07-22T07:36:48.078Z,2323.13
2018-07-22T07:37:48.090Z,1760.63
2018-07-22T07:38:48.111Z,1878.75
2018-07-22T07:39:48.124Z,1912.50
2018-07-22T07:40:48.139Z,1755.00
2018-07-22T07:41:48.151Z,1980.00
2018-07-22T07:42:48.161Z,2233.13
2018-07-22T07:43:48.175Z,2385.00
2018-07-22T07:44:48.189Z,2238.75
2018-07-22T07:45:48.205Z,2356.88
2018-07-22T07:46:48.221Z,1125.00
2018-07-22T07:47:48.239Z,1068.75
2018-07-22T07:48:48.245Z,1614.38
2018-07-22T07:49:48.258Z,1119.38
2018-07-22T07:50:48.278Z,1783.13
2018-07-22T07:51:48.290Z,2700.00
2018-07-22T07:52:48.309Z,3009.38
2018-07-22T07:53:48.318Z,1749.38
2018-07-22T07:54:48.327Z,3088.13
2018-07-22T07:55:48.340Z,2941.88
2018-07-22T07:56:48.353Z,3200.63
2018-07-22T07:57:48.366Z,3251.25
2018-07-22T07:58:48.384Z,3262.50
2018-07-22T07:59:48.396Z,3211.88
2018-07-22T08:00:48.408Z,3020.63
2018-07-22T08:01:48.421Z,3313.13
2018-07-22T08:02:48.430Z,3521.25
2018-07-22T08:03:48.489Z,3836.25
2018-07-22T08:04:48.462Z,3864.38
2018-07-22T08:05:48.473Z,3645.00
2018-07-22T08:06:48.483Z,3830.63
2018-07-22T08:07:48.497Z,4207.50
2018-07-22T08:08:48.512Z,3864.38
2018-07-22T08:09:48.524Z,3740.63
2018-07-22T08:10:48.543Z,4246.88
2018-07-22T08:11:48.591Z,4556.25
2018-07-22T08:12:48.574Z,4612.50
2018-07-22T08:13:48.585Z,4376.25
2018-07-22T08:14:48.594Z,4230.00
2018-07-22T08:15:48.612Z,4173.75
2018-07-22T08:16:48.623Z,4173.75
2018-07-22T08:17:48.637Z,4027.50
2018-07-22T08:18:48.656Z,4061.25
2018-07-22T08:19:48.671Z,4072.50
2018-07-22T08:20:48.681Z,3948.75
2018-07-22T08:21:48.893Z,3796.88
2018-07-22T08:22:48.715Z,3628.13
2018-07-22T08:23:48.730Z,3600.00
2018-07-22T08:24:48.746Z,3751.88
2018-07-22T08:25:48.761Z,3870.00
2018-07-22T08:26:48.774Z,3273.75
2018-07-22T08:27:48.785Z,3470.63
2018-07-22T08:28:48.801Z,3605.63
2018-07-22T08:29:48.817Z,3825.00
2018-07-22T08:30:48.838Z,4162.50
2018-07-22T08:31:48.850Z,4044.38
2018-07-22T08:32:48.866Z,3729.38
2018-07-22T08:33:48.881Z,3633.75
2018-07-22T08:34:48.893Z,3673.13
2018-07-22T08:35:48.909Z,3465.00
2018-07-22T08:36:48.929Z,3481.88
2018-07-22T08:37:48.944Z,3465.00
2018-07-22T08:38:48.956Z,3543.75
2018-07-22T08:39:48.974Z,3436.88
2018-07-22T08:40:48.988Z,3386.25
2018-07-22T08:41:49.003Z,3459.38
2018-07-22T08:42:49.024Z,3566.25
2018-07-22T08:43:49.041Z,3510.00
2018-07-22T08:44:49.057Z,3403.13
2018-07-22T08:45:49.072Z,3240.00
2018-07-22T08:46:49.084Z,3150.00
2018-07-22T08:47:49.103Z,3060.00
2018-07-22T08:48:49.121Z,2902.50
2018-07-22T08:49:49.135Z,3150.00
2018-07-22T08:50:49.155Z,3161.25
2018-07-22T08:51:49.174Z,3476.25
2018-07-22T08:52:49.185Z,3459.38
2018-07-22T08:53:49.202Z,3386.25
2018-07-22T08:54:49.222Z,3358.13
2018-07-22T08:55:49.240Z,3352.50
2018-07-22T08:56:49.255Z,3313.13
2018-07-22T08:57:49.271Z,3273.75
2018-07-22T08:58:49.284Z,3178.13
2018-07-22T08:59:49.302Z,3093.75
2018-07-22T09:00:49.318Z,3448.13
2018-07-22T09:01:49.334Z,3380.63
2018-07-22T09:02:49.357Z,3369.38
2018-07-22T09:03:49.375Z,3313.13
2018-07-22T09:04:49.391Z,3425.63
2018-07-22T09:05:49.408Z,3566.25
2018-07-22T09:06:49.420Z,3712.50
2018-07-22T09:07:49.438Z,3785.63
2018-07-22T09:08:49.460Z,3763.13
2018-07-22T09:09:49.477Z,3740.63
2018-07-22T09:10:49.493Z,3881.25
2018-07-22T09:11:49.597Z,4286.25
2018-07-22T09:12:49.530Z,4511.25
2018-07-22T09:13:49.542Z,4387.50
2018-07-22T09:14:49.565Z,4258.13
2018-07-22T09:15:49.585Z,3915.00
2018-07-22T09:16:49.603Z,3566.25
2018-07-22T09:17:49.654Z,3301.88
2018-07-22T09:18:49.632Z,3161.25
2018-07-22T09:19:49.650Z,3144.38
2018-07-22T09:20:49.669Z,3116.25
2018-07-22T09:21:49.686Z,3065.63
2018-07-22T09:22:49.710Z,3065.63
2018-07-22T09:23:49.729Z,3110.63
2018-07-22T09:24:49.742Z,3127.50
2018-07-22T09:25:49.758Z,3138.75
2018-07-22T09:26:49.781Z,3127.50
2018-07-22T09:27:49.800Z,3116.25
2018-07-22T09:28:49.816Z,3150.00
2018-07-22T09:29:49.833Z,3245.63
2018-07-22T09:30:49.847Z,3279.38
2018-07-22T09:31:49.865Z,3296.25
2018-07-22T09:32:49.884Z,3307.50
2018-07-22T09:33:49.902Z,3313.13
2018-07-22T09:34:49.924Z,3375.00
2018-07-22T09:35:49.963Z,3414.38
2018-07-22T09:36:49.961Z,3414.38
2018-07-22T09:37:49.978Z,3470.63
2018-07-22T09:38:49.992Z,3436.88
2018-07-22T09:39:50.009Z,3431.25
2018-07-22T09:40:50.032Z,3420.00
2018-07-22T09:41:50.081Z,3526.88
2018-07-22T09:42:50.064Z,3577.50
2018-07-22T09:43:50.082Z,3566.25
2018-07-22T09:44:50.104Z,3465.00
2018-07-22T09:45:50.120Z,3487.50
2018-07-22T09:46:50.144Z,3504.38
2018-07-22T09:47:50.160Z,3571.88
2018-07-22T09:48:50.179Z,3566.25
2018-07-22T09:49:50.198Z,3538.13
2018-07-22T09:50:50.209Z,3577.50
2018-07-22T09:51:50.230Z,3526.88
2018-07-22T09:52:50.251Z,3538.13
2018-07-22T09:53:50.308Z,3549.38
2018-07-22T09:54:50.288Z,3538.13
2018-07-22T09:55:50.307Z,3543.75
2018-07-22T09:56:50.323Z,3476.25
2018-07-22T09:57:50.339Z,3532.50
2018-07-22T09:58:50.362Z,3470.63
2018-07-22T09:59:50.382Z,3521.25
2018-07-22T10:00:50.402Z,3380.63
2018-07-22T10:01:50.419Z,3206.25
2018-07-22T10:02:50.435Z,2806.88
2018-07-22T10:03:50.453Z,3127.50
2018-07-22T10:04:50.517Z,3206.25
2018-07-22T10:05:50.490Z,3223.13
2018-07-22T10:06:50.515Z,3178.13
2018-07-22T10:07:50.532Z,3082.50
2018-07-22T10:08:50.552Z,2874.38
2018-07-22T10:09:50.569Z,3020.63
2018-07-22T10:10:50.583Z,2919.38
2018-07-22T10:11:50.602Z,2851.88
2018-07-22T10:12:50.625Z,2835.00
2018-07-22T10:13:50.644Z,2868.75
2018-07-22T10:14:50.713Z,2728.13
2018-07-22T10:15:50.677Z,2660.63
2018-07-22T10:16:50.696Z,2812.50
2018-07-22T10:17:50.713Z,2840.63
2018-07-22T10:18:50.736Z,2801.25
2018-07-22T10:19:50.757Z,2818.13
2018-07-22T10:20:50.777Z,2790.00
2018-07-22T10:21:50.800Z,2767.50
2018-07-22T10:22:50.808Z,2795.63
2018-07-22T10:23:50.825Z,2795.63
2018-07-22T10:24:50.844Z,2728.13
2018-07-22T10:25:50.862Z,2694.38
2018-07-22T10:26:50.886Z,2778.75
2018-07-22T10:27:50.904Z,2773.13
2018-07-22T10:28:50.918Z,2767.50
2018-07-22T10:29:50.937Z,3217.50
2018-07-22T10:30:50.960Z,4111.88
2018-07-22T10:31:50.978Z,3960.00
2018-07-22T10:32:50.998Z,4320.00
2018-07-22T10:33:51.016Z,4342.50
2018-07-22T10:34:51.030Z,4342.50
2018-07-22T10:35:51.100Z,4016.25
2018-07-22T10:36:51.072Z,3943.13
2018-07-22T10:37:51.086Z,3650.63
2018-07-22T10:38:51.110Z,3712.50
2018-07-22T10:39:51.128Z,4100.63
2018-07-22T10:40:51.187Z,4404.38
2018-07-22T10:41:51.168Z,4353.75
2018-07-22T10:42:51.178Z,4584.38
2018-07-22T10:43:51.197Z,4432.50
2018-07-22T10:44:51.219Z,4106.25
2018-07-22T10:45:51.236Z,4353.75
2018-07-22T10:46:51.249Z,4539.38
2018-07-22T10:47:51.267Z,4511.25
2018-07-22T10:48:51.286Z,4471.88
2018-07-22T10:49:51.303Z,4578.75
2018-07-22T10:50:51.345Z,4500.00
2018-07-22T10:51:51.344Z,4629.38
2018-07-22T10:52:51.363Z,4449.38
2018-07-22T10:53:51.381Z,4657.50
2018-07-22T10:54:51.390Z,4696.88
2018-07-22T10:55:51.410Z,4651.88
2018-07-22T10:56:51.427Z,4680.00
2018-07-22T10:57:51.442Z,4820.63
2018-07-22T10:58:51.465Z,4736.25
2018-07-22T10:59:51.484Z,4781.25
2018-07-22T11:00:51.493Z,4966.88
2018-07-22T11:01:51.510Z,4910.63
2018-07-22T11:02:51.531Z,4708.13
2018-07-22T11:03:51.549Z,4803.75
2018-07-22T11:04:51.568Z,4933.13
2018-07-22T11:05:51.583Z,5158.13
2018-07-22T11:06:51.594Z,5163.75
2018-07-22T11:07:51.611Z,5017.50
2018-07-22T11:08:51.628Z,4955.63
2018-07-22T11:09:51.644Z,4882.50
2018-07-22T11:10:51.666Z,4989.38
2018-07-22T11:11:51.683Z,5006.25
2018-07-22T11:12:51.700Z,5028.75
2018-07-22T11:13:51.715Z,5242.50
2018-07-22T11:14:51.832Z,5281.88
2018-07-22T11:15:51.745Z,5411.25
2018-07-22T11:16:51.767Z,5349.38
2018-07-22T11:17:51.785Z,5259.38
2018-07-22T11:18:51.846Z,5265.00
2018-07-22T11:19:51.813Z,5208.75
2018-07-22T11:20:51.835Z,5225.63
2018-07-22T11:21:51.847Z,5315.63
2018-07-22T11:22:51.869Z,5062.50
2018-07-22T11:23:51.886Z,4944.38
2018-07-22T11:24:51.904Z,5118.75
2018-07-22T11:25:51.920Z,5079.38
2018-07-22T11:26:51.932Z,1051.88
2018-07-22T11:27:51.948Z,3999.38
2018-07-22T11:28:52.101Z,1726.88
2018-07-22T11:29:51.981Z,973.13
2018-07-22T11:30:52.000Z,928.13
2018-07-22T11:31:52.016Z,933.75
2018-07-22T11:32:52.028Z,939.38
2018-07-22T11:33:52.042Z,922.50
2018-07-22T11:34:52.060Z,838.13
2018-07-22T11:35:52.114Z,911.25
2018-07-22T11:36:52.091Z,883.13
2018-07-22T11:37:52.105Z,877.50
2018-07-22T11:38:52.112Z,911.25
2018-07-22T11:39:52.125Z,916.88
2018-07-22T11:40:52.140Z,911.25
2018-07-22T11:41:52.152Z,933.75
2018-07-22T11:42:52.169Z,945.00
2018-07-22T11:43:52.253Z,961.88
2018-07-22T11:44:52.194Z,961.88
2018-07-22T11:45:52.205Z,967.50
2018-07-22T11:46:52.212Z,961.88
2018-07-22T11:47:52.224Z,939.38
2018-07-22T11:48:52.242Z,900.00
2018-07-22T11:49:52.250Z,883.13
2018-07-22T11:50:52.257Z,877.50
2018-07-22T11:51:52.267Z,900.00
2018-07-22T11:52:52.277Z,922.50
2018-07-22T11:53:52.289Z,922.50
2018-07-22T11:54:52.304Z,905.63
2018-07-22T11:55:52.312Z,888.75
2018-07-22T11:56:52.323Z,871.88
2018-07-22T11:57:52.334Z,849.38
2018-07-22T11:58:52.391Z,804.38
2018-07-22T11:59:52.347Z,798.75
2018-07-22T12:00:52.358Z,697.50
2018-07-22T12:01:52.370Z,781.88
2018-07-22T12:02:52.382Z,832.50
2018-07-22T12:03:52.391Z,810.00
2018-07-22T12:04:52.396Z,798.75
2018-07-22T12:05:52.469Z,787.50
2018-07-22T12:06:52.419Z,770.63
2018-07-22T12:07:52.427Z,748.13
2018-07-22T12:08:52.436Z,736.88
2018-07-22T12:09:52.443Z,725.63
2018-07-22T12:10:52.448Z,731.25
2018-07-22T12:11:52.456Z,720.00
2018-07-22T12:12:52.465Z,736.88
2018-07-22T12:13:52.473Z,748.13
2018-07-22T12:14:52.486Z,765.00
2018-07-22T12:15:52.496Z,759.38
2018-07-22T12:16:52.505Z,731.25
2018-07-22T12:17:52.512Z,736.88
2018-07-22T12:18:52.514Z,714.38
2018-07-22T12:19:52.524Z,675.00
2018-07-22T12:20:52.539Z,646.88
2018-07-22T12:21:52.548Z,630.00
2018-07-22T12:22:52.551Z,607.50
2018-07-22T12:23:52.555Z,613.13
2018-07-22T12:24:52.563Z,618.75
2018-07-22T12:25:52.569Z,624.38
2018-07-22T12:26:52.582Z,624.38
2018-07-22T12:27:52.591Z,630.00
2018-07-22T12:28:52.599Z,624.38
2018-07-22T12:29:52.613Z,641.25
2018-07-22T12:30:52.611Z,658.13
2018-07-22T12:31:52.617Z,663.75
2018-07-22T12:32:52.627Z,669.38
2018-07-22T12:33:52.632Z,658.13